createdAt,value
2023-04-07T00:00:17.287Z,74.35
2023-04-07T00:02:44.662Z,74.67
2023-04-07T00:05:10.107Z,75.35
2023-04-07T00:07:44.892Z,75.58
2023-04-07T00:10:02.926Z,75.89
2023-04-07T00:12:29.304Z,75.78
2023-04-07T00:14:55.718Z,75.77
2023-04-07T00:17:22.179Z,76.21
2023-04-07T00:19:48.564Z,76.43
2023-04-07T00:22:14.968Z,76.47
2023-04-07T00:24:41.341Z,77.19
2023-04-07T00:27:07.964Z,77.24
2023-04-07T00:29:34.329Z,77.07
2023-04-07T00:32:00.706Z,78.27
2023-04-07T00:34:27.223Z,76.48
2023-04-07T00:36:53.590Z,76.60
2023-04-07T00:39:19.959Z,76.83
2023-04-07T00:41:46.371Z,77.02
2023-04-07T00:44:12.872Z,77.14
2023-04-07T00:46:39.190Z,77.54
2023-04-07T00:49:05.621Z,77.93
2023-04-07T00:51:32.023Z,77.23
2023-04-07T00:53:58.437Z,76.68
2023-04-07T00:56:24.851Z,76.87
2023-04-07T00:58:51.211Z,77.83
2023-04-07T01:01:17.609Z,77.54
2023-04-07T01:03:44.221Z,76.33
2023-04-07T01:06:10.356Z,76.52
2023-04-07T01:08:36.735Z,77.08
2023-04-07T01:11:03.135Z,76.83
2023-04-07T01:13:29.527Z,76.12
2023-04-07T01:15:55.953Z,76.97
2023-04-07T01:18:22.303Z,76.59
2023-04-07T01:20:48.696Z,76.12
2023-04-07T01:23:15.089Z,77.38
2023-04-07T01:25:41.493Z,77.70
2023-04-07T01:28:07.854Z,77.98
2023-04-07T01:30:34.228Z,78.82
2023-04-07T01:33:00.715Z,78.17
2023-04-07T01:35:27.043Z,78.50
2023-04-07T01:37:53.401Z,78.46
2023-04-07T01:40:19.857Z,78.30
2023-04-07T01:42:46.219Z,78.25
2023-04-07T01:45:12.599Z,78.46
2023-04-07T01:47:39.075Z,78.39
2023-04-07T01:50:05.421Z,78.43
2023-04-07T01:52:31.813Z,78.51
2023-04-07T01:54:58.219Z,78.65
2023-04-07T01:57:24.621Z,78.71
2023-04-07T01:59:51.033Z,78.80
2023-04-07T02:02:17.498Z,78.98
2023-04-07T02:04:43.854Z,79.11
2023-04-07T02:07:10.231Z,79.42
2023-04-07T02:09:36.643Z,79.38
2023-04-07T02:12:03.039Z,79.44
2023-04-07T02:14:29.448Z,79.25
2023-04-07T02:16:55.886Z,79.09
2023-04-07T02:19:22.246Z,79.23
2023-04-07T02:21:48.641Z,79.23
2023-04-07T02:24:14.986Z,78.99
2023-04-07T02:26:41.357Z,78.80
2023-04-07T02:29:07.721Z,78.74
2023-04-07T02:31:34.190Z,78.56
2023-04-07T02:34:00.564Z,78.11
2023-04-07T02:36:26.997Z,77.65
2023-04-07T02:38:53.361Z,77.99
2023-04-07T02:41:19.779Z,78.23
2023-04-07T02:43:46.261Z,78.48
2023-04-07T02:46:13.784Z,78.51
2023-04-07T02:48:39.086Z,78.07
2023-04-07T02:51:05.498Z,78.01
2023-04-07T02:53:31.868Z,78.05
2023-04-07T02:55:58.232Z,77.95
2023-04-07T02:58:24.944Z,77.77
2023-04-07T03:00:51.444Z,77.66
2023-04-07T03:03:18.069Z,77.70
2023-04-07T03:05:46.525Z,77.93
2023-04-07T03:08:13.265Z,77.61
2023-04-07T03:10:39.473Z,76.80
2023-04-07T03:13:05.914Z,76.34
2023-04-07T03:15:32.267Z,75.99
2023-04-07T03:17:58.713Z,75.57
2023-04-07T03:20:25.026Z,75.37
2023-04-07T03:22:51.476Z,75.12
2023-04-07T03:25:17.912Z,75.00
2023-04-07T03:27:44.280Z,74.47
2023-04-07T03:30:10.703Z,74.25
2023-04-07T03:32:37.355Z,74.66
2023-04-07T03:35:03.750Z,74.74
2023-04-07T03:37:30.117Z,75.28
2023-04-07T03:39:56.531Z,75.46
2023-04-07T03:42:22.945Z,76.13
2023-04-07T03:44:49.328Z,76.51
2023-04-07T03:47:15.736Z,76.60
2023-04-07T03:49:42.126Z,76.86
2023-04-07T03:52:08.546Z,77.40
2023-04-07T03:54:35.046Z,77.74
2023-04-07T03:57:01.551Z,77.99
2023-04-07T03:59:27.959Z,78.15
2023-04-07T04:01:54.341Z,78.33
2023-04-07T04:04:20.815Z,78.52
2023-04-07T04:06:47.078Z,78.67
2023-04-07T04:09:13.488Z,78.86
2023-04-07T04:11:39.963Z,79.14
2023-04-07T04:14:06.328Z,79.54
2023-04-07T04:16:32.793Z,79.86
2023-04-07T04:18:59.156Z,79.89
2023-04-07T04:21:25.523Z,80.00
2023-04-07T04:23:53.986Z,80.03
2023-04-07T04:26:18.336Z,79.82
2023-04-07T04:28:44.709Z,79.67
2023-04-07T04:31:11.140Z,79.41
2023-04-07T04:33:37.638Z,78.94
2023-04-07T04:36:04.015Z,78.75
2023-04-07T04:38:30.466Z,78.57
2023-04-07T04:40:56.833Z,78.13
2023-04-07T04:43:23.218Z,77.90
2023-04-07T04:45:49.692Z,77.74
2023-04-07T04:48:16.091Z,77.91
2023-04-07T04:50:42.454Z,77.88
2023-04-07T04:53:08.833Z,77.77
2023-04-07T04:55:35.238Z,77.26
2023-04-07T04:58:01.622Z,76.88
2023-04-07T05:00:28.121Z,76.52
2023-04-07T05:02:54.577Z,76.32
2023-04-07T05:05:20.855Z,75.57
2023-04-07T05:07:47.252Z,75.21
2023-04-07T05:10:13.705Z,75.32
2023-04-07T05:12:40.058Z,75.01
2023-04-07T05:15:06.433Z,74.72
2023-04-07T05:17:32.860Z,74.59
2023-04-07T05:19:59.222Z,74.23
2023-04-07T05:22:25.665Z,73.78
2023-04-07T05:24:52.070Z,73.85
2023-04-07T05:27:18.483Z,73.75
2023-04-07T05:29:44.891Z,73.27
2023-04-07T05:32:11.360Z,72.35
2023-04-07T05:34:37.819Z,72.39
2023-04-07T05:37:04.205Z,71.12
2023-04-07T05:39:30.786Z,71.18
2023-04-07T05:41:57.364Z,70.89
2023-04-07T05:44:23.732Z,71.28
2023-04-07T05:46:50.419Z,71.74
2023-04-07T05:49:20.190Z,72.46
2023-04-07T05:51:43.260Z,72.04
2023-04-07T05:54:09.697Z,71.84
2023-04-07T05:56:36.069Z,72.07
2023-04-07T05:59:02.508Z,71.90
2023-04-07T06:01:28.955Z,71.49
2023-04-07T06:03:55.411Z,71.98
2023-04-07T06:06:21.847Z,72.37
2023-04-07T06:08:48.491Z,71.84
2023-04-07T06:11:14.989Z,71.88
2023-04-07T06:13:41.428Z,71.47
2023-04-07T06:16:07.966Z,70.93
2023-04-07T06:18:34.387Z,69.09
2023-04-07T06:21:00.884Z,67.95
2023-04-07T06:23:27.496Z,66.60
2023-04-07T06:25:53.972Z,64.58
2023-04-07T06:28:20.406Z,62.04
2023-04-07T06:30:46.910Z,58.63
2023-04-07T06:33:13.263Z,55.21
2023-04-07T06:35:39.644Z,53.61
2023-04-07T06:38:06.044Z,51.72
2023-04-07T06:40:32.499Z,51.72
2023-04-07T06:42:58.897Z,50.27
2023-04-07T06:45:25.265Z,50.83
2023-04-07T06:47:51.734Z,51.77
2023-04-07T06:50:18.088Z,49.78
2023-04-07T06:52:44.554Z,47.94
2023-04-07T06:55:10.958Z,47.43
2023-04-07T06:57:37.375Z,45.86
2023-04-07T07:00:03.806Z,46.89
2023-04-07T07:02:30.513Z,45.81
2023-04-07T07:04:56.824Z,44.51
2023-04-07T07:07:23.199Z,44.38
2023-04-07T07:09:49.633Z,43.98
2023-04-07T07:12:15.993Z,44.07
2023-04-07T07:14:42.376Z,42.58
2023-04-07T07:17:08.824Z,42.11
2023-04-07T07:19:35.493Z,42.21
2023-04-07T07:22:01.673Z,45.15
2023-04-07T07:24:28.084Z,46.73
2023-04-07T07:26:54.451Z,47.45
2023-04-07T07:29:20.962Z,47.82
2023-04-07T07:31:47.402Z,49.25
2023-04-07T07:34:13.777Z,49.84
2023-04-07T07:36:40.178Z,51.58
2023-04-07T07:39:06.588Z,52.04
2023-04-07T07:41:32.966Z,52.60
2023-04-07T07:43:59.415Z,52.13
2023-04-07T07:46:25.928Z,52.34
2023-04-07T07:48:52.259Z,52.55
2023-04-07T07:51:18.687Z,52.08
2023-04-07T07:53:45.171Z,51.04
2023-04-07T07:56:11.473Z,50.40
2023-04-07T07:58:37.989Z,48.98
2023-04-07T08:01:04.406Z,48.56
2023-04-07T08:03:31.020Z,44.16
2023-04-07T08:05:57.293Z,44.32
2023-04-07T08:08:23.660Z,44.13
2023-04-07T08:10:50.101Z,43.16
2023-04-07T08:13:16.606Z,43.73
2023-04-07T08:15:43.098Z,43.44
2023-04-07T08:18:09.511Z,42.79
2023-04-07T08:20:35.858Z,42.82
2023-04-07T08:23:02.289Z,42.94
2023-04-07T08:25:28.720Z,42.17
2023-04-07T08:27:55.156Z,42.03
2023-04-07T08:30:21.624Z,42.80
2023-04-07T08:32:48.051Z,42.92
2023-04-07T08:35:14.450Z,41.83
2023-04-07T08:37:40.838Z,42.02
2023-04-07T08:40:07.406Z,42.86
2023-04-07T08:42:33.888Z,43.21
2023-04-07T08:45:01.043Z,42.86
2023-04-07T08:47:26.700Z,42.88
2023-04-07T08:49:53.054Z,42.50
2023-04-07T08:52:19.524Z,41.95
2023-04-07T08:54:45.974Z,40.92
2023-04-07T08:57:12.566Z,39.38
2023-04-07T08:59:38.982Z,38.90
2023-04-07T09:02:05.637Z,39.45
2023-04-07T09:04:31.969Z,38.92
2023-04-07T09:06:58.757Z,40.42
2023-04-07T09:09:25.156Z,39.40
2023-04-07T09:11:51.531Z,39.87
2023-04-07T09:14:17.913Z,40.11
2023-04-07T09:16:44.407Z,40.12
2023-04-07T09:19:10.773Z,39.93
2023-04-07T09:21:37.168Z,39.29
2023-04-07T09:24:03.541Z,39.44
2023-04-07T09:26:29.914Z,39.10
2023-04-07T09:28:56.483Z,38.35
2023-04-07T09:31:22.919Z,37.89
2023-04-07T09:33:49.502Z,37.84
2023-04-07T09:36:15.715Z,37.53
2023-04-07T09:38:42.021Z,37.33
2023-04-07T09:41:08.470Z,38.22
2023-04-07T09:43:34.826Z,39.02
2023-04-07T09:46:01.262Z,38.69
2023-04-07T09:48:27.647Z,39.17
2023-04-07T09:50:54.098Z,38.80
2023-04-07T09:53:20.462Z,39.61
2023-04-07T09:55:46.890Z,39.82
2023-04-07T09:58:13.255Z,40.03
2023-04-07T10:00:39.670Z,39.23
2023-04-07T10:03:06.201Z,38.74
2023-04-07T10:05:32.506Z,38.40
2023-04-07T10:07:58.915Z,38.34
2023-04-07T10:10:25.353Z,38.13
2023-04-07T10:12:51.787Z,38.86
2023-04-07T10:15:18.163Z,39.35
2023-04-07T10:17:44.606Z,40.12
2023-04-07T10:20:10.962Z,39.79
2023-04-07T10:22:37.376Z,39.67
2023-04-07T10:25:03.808Z,40.20
2023-04-07T10:27:30.241Z,40.72
2023-04-07T10:29:56.652Z,41.24
2023-04-07T10:32:23.122Z,41.56
2023-04-07T10:34:49.555Z,41.77
2023-04-07T10:37:15.982Z,42.47
2023-04-07T10:39:42.365Z,42.58
2023-04-07T10:42:08.766Z,42.98
2023-04-07T10:44:35.221Z,42.58
2023-04-07T10:47:01.611Z,43.42
2023-04-07T10:49:28.402Z,43.32
2023-04-07T10:51:54.833Z,43.40
2023-04-07T10:54:21.281Z,43.13
2023-04-07T10:56:47.721Z,42.07
2023-04-07T10:59:14.146Z,42.40
2023-04-07T11:01:40.618Z,43.21
2023-04-07T11:04:07.086Z,43.01
2023-04-07T11:06:33.345Z,43.17
2023-04-07T11:08:59.769Z,42.57
2023-04-07T11:11:26.358Z,42.49
2023-04-07T11:13:52.792Z,42.83
2023-04-07T11:16:20.433Z,42.35
2023-04-07T11:18:46.752Z,42.92
2023-04-07T11:21:13.153Z,43.15
2023-04-07T11:23:39.784Z,43.28
2023-04-07T11:26:06.222Z,43.38
2023-04-07T11:28:32.591Z,43.50
2023-04-07T11:30:59.062Z,43.12
2023-04-07T11:33:25.407Z,42.95
2023-04-07T11:35:51.828Z,43.37
2023-04-07T11:38:18.194Z,42.76
2023-04-07T11:40:44.582Z,43.03
2023-04-07T11:43:10.988Z,43.31
2023-04-07T11:45:37.466Z,42.89
2023-04-07T11:48:03.957Z,43.17
2023-04-07T11:50:31.456Z,43.00
2023-04-07T11:52:57.958Z,42.78
2023-04-07T11:55:24.425Z,43.48
2023-04-07T11:57:50.799Z,45.29
2023-04-07T12:00:19.490Z,44.15
2023-04-07T12:02:47.436Z,44.63
2023-04-07T12:05:13.699Z,45.70
2023-04-07T12:07:39.992Z,44.58
2023-04-07T12:10:06.403Z,41.48
2023-04-07T12:12:32.818Z,40.75
2023-04-07T12:14:59.237Z,39.25
2023-04-07T12:17:25.624Z,38.24
2023-04-07T12:19:52.079Z,39.29
2023-04-07T12:22:18.478Z,38.74
2023-04-07T12:24:44.882Z,39.42
2023-04-07T12:27:11.345Z,40.73
2023-04-07T12:29:37.762Z,40.85
2023-04-07T12:32:04.243Z,40.54
2023-04-07T12:34:30.662Z,40.96
2023-04-07T12:36:57.130Z,40.38
2023-04-07T12:39:23.505Z,41.06
2023-04-07T12:41:49.893Z,41.87
2023-04-07T12:44:17.437Z,41.50
2023-04-07T12:46:43.822Z,42.13
2023-04-07T12:49:10.283Z,42.07
2023-04-07T12:51:36.692Z,42.44
2023-04-07T12:54:03.097Z,42.45
2023-04-07T12:56:29.529Z,42.84
2023-04-07T12:58:55.940Z,43.37
2023-04-07T13:01:22.451Z,43.63
2023-04-07T13:03:49.265Z,44.49
2023-04-07T13:06:15.373Z,44.24
2023-04-07T13:08:41.737Z,44.95
2023-04-07T13:11:08.180Z,44.85
2023-04-07T13:13:34.545Z,44.43
2023-04-07T13:16:00.973Z,44.37
2023-04-07T13:18:27.380Z,44.25
2023-04-07T13:21:14.337Z,43.90
2023-04-07T13:23:20.279Z,43.84
2023-04-07T13:25:46.668Z,44.22
2023-04-07T13:28:13.044Z,44.23
2023-04-07T13:30:41.571Z,44.71
2023-04-07T13:33:08.021Z,44.53
2023-04-07T13:35:34.421Z,44.53
2023-04-07T13:38:01.793Z,45.15
2023-04-07T13:40:28.254Z,45.33
2023-04-07T13:42:54.652Z,45.85
2023-04-07T13:45:21.092Z,45.99
2023-04-07T13:47:47.552Z,45.91
2023-04-07T13:50:13.906Z,46.32
2023-04-07T13:52:40.270Z,46.46
2023-04-07T13:55:06.693Z,47.08
2023-04-07T13:57:33.063Z,46.92
2023-04-07T13:59:59.497Z,46.86
2023-04-07T14:02:26.081Z,47.42
2023-04-07T14:04:52.349Z,47.76
2023-04-07T14:07:18.715Z,47.60
2023-04-07T14:09:45.188Z,47.50
2023-04-07T14:12:11.598Z,47.93
2023-04-07T14:14:37.976Z,48.05
2023-04-07T14:17:04.402Z,48.58
2023-04-07T14:19:30.829Z,49.09
2023-04-07T14:21:57.243Z,49.34
2023-04-07T14:24:23.653Z,49.62
2023-04-07T14:26:50.065Z,50.03
2023-04-07T14:29:16.793Z,50.35
2023-04-07T14:31:43.204Z,50.77
2023-04-07T14:34:09.628Z,50.65
2023-04-07T14:36:35.996Z,51.10
2023-04-07T14:39:02.370Z,51.32
2023-04-07T14:41:28.786Z,51.56
2023-04-07T14:43:55.204Z,51.61
2023-04-07T14:46:21.649Z,51.79
2023-04-07T14:48:48.121Z,52.13
2023-04-07T14:51:14.519Z,52.32
2023-04-07T14:53:41.042Z,52.21
2023-04-07T14:56:07.484Z,52.56
2023-04-07T14:58:33.835Z,53.07
2023-04-07T15:01:00.246Z,53.63
2023-04-07T15:03:26.770Z,54.31
2023-04-07T15:05:53.059Z,55.08
2023-04-07T15:08:19.410Z,55.81
2023-04-07T15:10:52.976Z,56.42
2023-04-07T15:13:19.462Z,56.35
2023-04-07T15:15:45.900Z,56.40
2023-04-07T15:18:12.344Z,56.17
2023-04-07T15:20:38.730Z,56.25
2023-04-07T15:23:05.125Z,56.58
2023-04-07T15:25:31.522Z,56.39
2023-04-07T15:27:57.992Z,56.52
2023-04-07T15:30:24.392Z,56.83
2023-04-07T15:32:50.941Z,56.96
2023-04-07T15:35:17.312Z,57.32
2023-04-07T15:37:43.718Z,57.34
2023-04-07T15:40:10.114Z,57.08
2023-04-07T15:42:37.251Z,57.25
2023-04-07T15:45:03.635Z,57.41
2023-04-07T15:47:30.008Z,57.37
2023-04-07T15:49:56.423Z,57.49
2023-04-07T15:52:22.819Z,57.25
2023-04-07T15:54:49.271Z,57.38
2023-04-07T15:57:17.994Z,57.40
2023-04-07T15:59:44.403Z,57.16
2023-04-07T16:02:13.028Z,57.29
2023-04-07T16:04:37.330Z,56.96
2023-04-07T16:07:03.769Z,57.34
2023-04-07T16:09:30.103Z,57.79
2023-04-07T16:11:56.650Z,57.80
2023-04-07T16:14:23.051Z,58.03
2023-04-07T16:16:49.565Z,57.54
2023-04-07T16:19:17.614Z,56.98
2023-04-07T16:21:42.607Z,57.17
2023-04-07T16:24:08.874Z,57.29
2023-04-07T16:26:35.278Z,57.68
2023-04-07T16:29:01.664Z,58.03
2023-04-07T16:31:28.112Z,57.95
2023-04-07T16:33:54.503Z,58.04
2023-04-07T16:36:21.038Z,58.27
2023-04-07T16:38:47.458Z,58.52
2023-04-07T16:41:13.814Z,58.50
2023-04-07T16:43:40.215Z,58.66
2023-04-07T16:46:06.709Z,58.54
2023-04-07T16:48:33.024Z,58.77
2023-04-07T16:50:59.425Z,58.70
2023-04-07T16:53:25.959Z,58.72
2023-04-07T16:55:52.355Z,58.72
2023-04-07T16:58:18.997Z,59.00
2023-04-07T17:00:45.301Z,59.07
2023-04-07T17:03:11.819Z,59.25
2023-04-07T17:05:38.052Z,59.19
2023-04-07T17:08:04.487Z,59.40
2023-04-07T17:10:30.887Z,59.25
2023-04-07T17:12:57.301Z,59.35
2023-04-07T17:15:23.671Z,59.39
2023-04-07T17:17:50.218Z,59.43
2023-04-07T17:20:16.514Z,59.36
2023-04-07T17:22:43.082Z,59.53
2023-04-07T17:25:09.720Z,59.53
2023-04-07T17:27:36.115Z,59.79
2023-04-07T17:30:02.522Z,59.78
2023-04-07T17:32:29.252Z,59.86
2023-04-07T17:34:55.870Z,59.89
2023-04-07T17:37:22.303Z,59.61
2023-04-07T17:39:48.746Z,59.71
2023-04-07T17:42:15.148Z,60.07
2023-04-07T17:44:41.564Z,60.18
2023-04-07T17:47:08.083Z,60.23
2023-04-07T17:49:34.434Z,60.11
2023-04-07T17:52:00.852Z,59.82
2023-04-07T17:54:30.075Z,59.79
2023-04-07T17:56:53.963Z,60.38
2023-04-07T17:59:20.307Z,60.34
2023-04-07T18:01:46.750Z,60.15
2023-04-07T18:04:13.449Z,60.58
2023-04-07T18:06:39.718Z,60.41
2023-04-07T18:09:06.180Z,60.39
2023-04-07T18:11:32.606Z,60.60
2023-04-07T18:13:59.305Z,60.88
2023-04-07T18:16:25.798Z,60.78
2023-04-07T18:18:52.139Z,60.73
2023-04-07T18:21:18.556Z,60.55
2023-04-07T18:23:44.981Z,60.36
2023-04-07T18:26:11.585Z,60.56
2023-04-07T18:28:37.950Z,60.37
2023-04-07T18:31:04.348Z,60.00
2023-04-07T18:33:30.742Z,60.08
2023-04-07T18:35:57.203Z,60.19
2023-04-07T18:38:23.566Z,60.28
2023-04-07T18:40:49.980Z,60.25
2023-04-07T18:43:17.362Z,60.26
2023-04-07T18:45:45.191Z,60.40
2023-04-07T18:48:11.745Z,60.25
2023-04-07T18:50:38.120Z,59.89
2023-04-07T18:53:04.495Z,60.05
2023-04-07T18:55:30.983Z,59.67
2023-04-07T18:57:57.410Z,59.36
2023-04-07T19:00:23.794Z,58.95
2023-04-07T19:02:51.467Z,58.58
2023-04-07T19:05:20.987Z,58.34
2023-04-07T19:07:44.186Z,58.11
2023-04-07T19:10:10.657Z,58.22
2023-04-07T19:12:37.278Z,58.85
2023-04-07T19:15:05.821Z,59.25
2023-04-07T19:17:32.221Z,59.58
2023-04-07T19:19:58.634Z,59.91
2023-04-07T19:22:25.047Z,59.62
2023-04-07T19:24:51.509Z,60.74
2023-04-07T19:27:17.915Z,61.89
2023-04-07T19:29:44.377Z,62.36
2023-04-07T19:32:10.798Z,63.02
2023-04-07T19:34:37.218Z,63.73
2023-04-07T19:37:03.544Z,64.38
2023-04-07T19:39:31.128Z,64.95
2023-04-07T19:41:57.558Z,64.94
2023-04-07T19:44:23.977Z,65.00
2023-04-07T19:46:50.407Z,65.03
2023-04-07T19:49:17.104Z,65.03
2023-04-07T19:51:43.541Z,65.12
2023-04-07T19:54:09.919Z,65.07
2023-04-07T19:56:36.289Z,65.03
2023-04-07T19:59:05.264Z,65.03
2023-04-07T20:01:31.700Z,65.22
2023-04-07T20:03:58.096Z,65.28
2023-04-07T20:06:24.812Z,65.12
2023-04-07T20:08:51.371Z,65.10
2023-04-07T20:11:17.581Z,65.19
2023-04-07T20:13:44.135Z,65.45
2023-04-07T20:16:10.626Z,65.74
2023-04-07T20:18:36.909Z,65.81
2023-04-07T20:21:03.374Z,65.64
2023-04-07T20:23:29.902Z,65.49
2023-04-07T20:25:56.288Z,65.58
2023-04-07T20:28:22.700Z,65.32
2023-04-07T20:30:49.138Z,64.77
2023-04-07T20:33:15.550Z,64.97
2023-04-07T20:35:41.996Z,64.85
2023-04-07T20:38:08.322Z,65.01
2023-04-07T20:40:34.696Z,65.03
2023-04-07T20:43:01.163Z,64.97
2023-04-07T20:45:27.582Z,64.99
2023-04-07T20:47:54.022Z,64.91
2023-04-07T20:50:20.573Z,64.84
2023-04-07T20:52:46.967Z,65.01
2023-04-07T20:55:13.366Z,64.71
2023-04-07T20:57:40.136Z,64.52
2023-04-07T21:00:06.518Z,64.63
2023-04-07T21:02:33.001Z,64.30
2023-04-07T21:04:59.307Z,64.49
2023-04-07T21:07:25.935Z,64.41
2023-04-07T21:09:52.334Z,64.27
2023-04-07T21:12:18.748Z,64.24
2023-04-07T21:14:45.108Z,64.31
2023-04-07T21:17:11.621Z,64.42
2023-04-07T21:19:38.020Z,64.80
2023-04-07T21:22:04.571Z,65.31
2023-04-07T21:24:31.007Z,65.80
2023-04-07T21:26:57.391Z,66.50
2023-04-07T21:29:23.803Z,67.32
2023-04-07T21:31:50.391Z,67.74
2023-04-07T21:34:16.764Z,68.35
2023-04-07T21:36:43.252Z,68.59
2023-04-07T21:39:09.616Z,68.96
2023-04-07T21:41:36.027Z,69.15
2023-04-07T21:44:02.424Z,69.61
2023-04-07T21:46:28.899Z,69.93
2023-04-07T21:48:55.221Z,69.87
2023-04-07T21:51:21.598Z,69.94
2023-04-07T21:53:47.987Z,70.29
2023-04-07T21:56:14.397Z,70.30
2023-04-07T21:58:40.819Z,70.61
2023-04-07T22:01:07.184Z,70.45
2023-04-07T22:03:33.697Z,70.70
2023-04-07T22:05:59.982Z,70.79
2023-04-07T22:08:26.343Z,70.64
2023-04-07T22:10:52.830Z,70.78
2023-04-07T22:13:19.217Z,70.43
2023-04-07T22:15:45.646Z,70.21
2023-04-07T22:18:13.534Z,70.44
2023-04-07T22:20:38.454Z,70.43
2023-04-07T22:23:04.819Z,70.69
2023-04-07T22:25:31.212Z,70.61
2023-04-07T22:27:57.614Z,70.82
2023-04-07T22:30:24.012Z,70.95
2023-04-07T22:32:50.458Z,70.94
2023-04-07T22:35:16.830Z,71.10
2023-04-07T22:37:43.273Z,71.42
2023-04-07T22:40:09.646Z,71.50
2023-04-07T22:42:36.049Z,71.67
2023-04-07T22:45:02.483Z,71.71
2023-04-07T22:47:28.904Z,71.81
2023-04-07T22:49:55.258Z,71.82
2023-04-07T22:52:21.667Z,72.00
2023-04-07T22:54:48.085Z,72.06
2023-04-07T22:57:14.436Z,72.24
2023-04-07T22:59:40.858Z,72.55
2023-04-07T23:02:07.436Z,72.52
2023-04-07T23:04:33.699Z,72.20
2023-04-07T23:07:00.074Z,72.09
2023-04-07T23:09:26.475Z,71.96
2023-04-07T23:11:52.890Z,71.41
2023-04-07T23:14:19.260Z,71.20
2023-04-07T23:16:45.694Z,71.07
2023-04-07T23:19:12.110Z,70.96
2023-04-07T23:21:38.475Z,70.91
2023-04-07T23:26:31.094Z,70.76
2023-04-07T23:28:57.469Z,70.24
2023-04-07T23:31:23.881Z,70.40
2023-04-07T23:33:50.373Z,70.29
2023-04-07T23:36:16.734Z,70.01
2023-04-07T23:38:43.129Z,69.74
2023-04-07T23:41:11.387Z,69.26
2023-04-07T23:43:35.952Z,69.33
2023-04-07T23:46:02.580Z,69.14
2023-04-07T23:48:28.906Z,69.42
2023-04-07T23:50:55.323Z,69.54
2023-04-07T23:53:21.798Z,69.90
2023-04-07T23:55:48.152Z,69.90
2023-04-07T23:58:14.562Z,69.70
